WetterOnline ( https://www.wetteronline.de )

Wetter aktuell Berlin

Aktuelles Wetter: Berlin-Tempelhof (49m)

6-stündlich | Neueste Meldungen
Ortszeit Temperatur Wetter
Sa, 15.06. 14:00 20.9° C bedeckt
Sa, 15.06. 8:00 17.1° C bewölkt
Sa, 15.06. 2:00 13.9° C bewölkt
Fr, 14.06. 20:00 16.6° C bedeckt
Fr, 14.06. 14:00 14.9° C Regen
Fr, 14.06. 8:00 13.7° C bedeckt
Fr, 14.06. 2:00 10.9° C bewölkt
Do, 13.06. 20:00 17.7° C fast wolkenlos
Ortszeit Temperatur Wetter
Sa, 15.06. 15:30 21.3° C wolkig
Sa, 15.06. 15:10 21.8° C bewölkt
Sa, 15.06. 15:00 21.2° C bewölkt
Sa, 15.06. 14:50 21.2° C bewölkt
Sa, 15.06. 14:40 20.9° C bedeckt
Sa, 15.06. 14:30 20.5° C leichter Regen
Sa, 15.06. 14:00 20.9° C bedeckt
Sa, 15.06. 13:30 19.9° C bewölkt
Sa, 15.06. 13:00 19.9° C bedeckt
Sa, 15.06. 12:30 17.4° C bewölkt
Ortszeit Relative Feuchte Sichtweite
Sa, 15.06. 14:00 59% >70 km
Sa, 15.06. 8:00 71% 50 km
Sa, 15.06. 2:00 83% 45 km
Fr, 14.06. 20:00 73% 50 km
Fr, 14.06. 14:00 84% 6 km
Fr, 14.06. 8:00 66% 60 km
Fr, 14.06. 2:00 70% 55 km
Do, 13.06. 20:00 38% >70 km
Ortszeit Relative Feuchte Sichtweite
Sa, 15.06. 15:30 53% >70 km
Sa, 15.06. 15:10 51% -
Sa, 15.06. 15:00 52% >70 km
Sa, 15.06. 14:50 52% -
Sa, 15.06. 14:40 51% -
Sa, 15.06. 14:30 60% 45 km
Sa, 15.06. 14:00 59% >70 km
Sa, 15.06. 13:30 69% 50 km
Sa, 15.06. 13:00 71% >70 km
Sa, 15.06. 12:30 84% >70 km
Ortszeit Niederschlagsmenge Niederschlagsart
Sa, 15.06. 14:00 4 l/m2 in 6 Std. Regen
Sa, 15.06. 8:00 0.0 l/m2 in 12 Std. -
Sa, 15.06. 2:00 0.0 l/m2 in 6 Std. -
Fr, 14.06. 20:00 2 l/m2 in 12 Std. Regen
Fr, 14.06. 14:00 0.1 l/m2 in 6 Std. Regen, Niederschlag
Fr, 14.06. 8:00 0.0 l/m2 in 12 Std. -
Fr, 14.06. 2:00 0.0 l/m2 in 6 Std. -
Do, 13.06. 20:00 0.0 l/m2 in 12 Std. -
Ortszeit Niederschlagsmenge Niederschlagsart
Sa, 15.06. 15:30 0.0 l/m2 in 30 Min -
Sa, 15.06. 15:10 keine Meldung -
Sa, 15.06. 15:00 <0.05 l/m2 in 1 Std. Regen
Sa, 15.06. 14:50 keine Meldung -
Sa, 15.06. 14:40 keine Meldung -
Sa, 15.06. 14:30 <0.05 l/m2 in 30 Min -
Sa, 15.06. 14:00 0.0 l/m2 in 1 Std. Regen
Sa, 15.06. 13:30 0.0 l/m2 in 30 Min -
Sa, 15.06. 13:00 <0.05 l/m2 in 1 Std. -
Sa, 15.06. 12:30 0.0 l/m2 in 30 Min -
Ortszeit Stärke Spitze Richtung
km/h Bft. km/h Grad Sektor
Sa, 15.06. 14:00 22 4 39 220° SW
Sa, 15.06. 8:00 14 3 25 140° SO
Sa, 15.06. 2:00 9 2 20 140° SO
Fr, 14.06. 20:00 4 1 32 250° W
Fr, 14.06. 14:00 25 4 43 240° SW
Fr, 14.06. 8:00 9 2 17 120° SO
Fr, 14.06. 2:00 2 1 20 180° S
Do, 13.06. 20:00 13 3 37 280° W
Ortszeit Stärke Spitze Richtung
km/h Bft. km/h Grad Sektor
Sa, 15.06. 15:30 22 4 40 220° SW
Sa, 15.06. 15:10 22 4 - 230° SW
Sa, 15.06. 15:00 18 3 40 220° SW
Sa, 15.06. 14:50 18 3 - 220° SW
Sa, 15.06. 14:40 25 4 - 220° SW
Sa, 15.06. 14:30 19 3 37 210° SW
Sa, 15.06. 14:00 22 4 39 220° SW
Sa, 15.06. 13:30 22 4 36 200° S
Sa, 15.06. 13:00 18 3 32 210° SW
Sa, 15.06. 12:30 18 3 29 180° S
Ortszeit Untergrenze Bedeckung Gattung
total tief tief mittel hoch
Sa, 15.06. 14:00 840 m 8/8 8/8 - - -
Sa, 15.06. 8:00 2700 m 8/8 6/8 - - -
Sa, 15.06. 2:00 1440 m 8/8 5/8 - - -
Fr, 14.06. 20:00 1500 m 8/8 8/8 - - -
Fr, 14.06. 14:00 600 m 7/8 7/8 - - -
Fr, 14.06. 8:00 3300 m 8/8 8/8 - - -
Fr, 14.06. 2:00 6300 m 8/8 7/8 - - -
Do, 13.06. 20:00 9000 m 1/8 0/8 - - -
Ortszeit Bedeckungsgrad in Achtel und Wolkenuntergrenze
Sa, 15.06. 15:30 4(1800m) 5(3000m)
Sa, 15.06. 15:10 7
Sa, 15.06. 15:00 7(2100m) 7(3000m)
Sa, 15.06. 14:50 7(2100m) 7(3000m)
Sa, 15.06. 14:40 8
Sa, 15.06. 14:30 5(1140m) 7(1800m) 7(2700m)
Sa, 15.06. 14:00 3(840m) 7(2100m) 8(2700m)
Sa, 15.06. 13:30 7(870m) 7(1380m) 7(1800m)
Sa, 15.06. 13:00 3(660m) 8(2700m) 8(4800m)
Sa, 15.06. 12:30 4(2400m) 8(5100m) 8(6600m)
Ortszeit Luftdruck NN (hPa) Tendenz (hPa in 3 Std.)
Sa, 15.06. 14:00 1006 - 0,2
Sa, 15.06. 8:00 1005 - 1,2
Sa, 15.06. 2:00 1009 - 1,3
Fr, 14.06. 20:00 1011 - 1,1
Fr, 14.06. 14:00 1014 + 0,3
Fr, 14.06. 8:00 1014 - 0,9
Fr, 14.06. 2:00 1016 - 0,6
Do, 13.06. 20:00 1017 0,0
Ortszeit Luftdruck NN (hPa) Tendenz (hPa in 3 Std.)
Sa, 15.06. 15:30 1006 + 0,3
Sa, 15.06. 15:10 1006 keine Meldung
Sa, 15.06. 15:00 1006 - 0,1
Sa, 15.06. 14:50 1006 keine Meldung
Sa, 15.06. 14:40 1006 keine Meldung
Sa, 15.06. 14:30 1006 - 0,3
Sa, 15.06. 14:00 1006 - 0,2
Sa, 15.06. 13:30 1006 - 0,1
Sa, 15.06. 13:00 1006 0,0
Sa, 15.06. 12:30 1006 + 0,7
Ortszeit Schneehöhe (cm)
Sa, 15.06. 14:00 0
Sa, 15.06. 8:00 0
Sa, 15.06. 2:00 0
Fr, 14.06. 20:00 0
Fr, 14.06. 14:00 0
Fr, 14.06. 8:00 0
Fr, 14.06. 2:00 0
Do, 13.06. 20:00 0
Ortszeit Schneehöhe (cm)
Sa, 15.06. 15:30 0
Sa, 15.06. 15:10 -
Sa, 15.06. 15:00 0
Sa, 15.06. 14:50 0
Sa, 15.06. 14:40 -
Sa, 15.06. 14:30 0
Sa, 15.06. 14:00 0
Sa, 15.06. 13:30 0
Sa, 15.06. 13:00 0
Sa, 15.06. 12:30 0
Link zu dieser Seite / Seite empfehlen

Das Wetter in ...